MiSS Linda Lee — WDE5415 — position and weather

sailwx.info

Track history (hours):
 
Tides and Currents Weather Stations Pressure Air Temp Water Temp Dewpoint Dewpoint Depression Visibility Wind Speed Wind Dir Waves Ship Positions

MiSS Linda Lee

Owner: Starfleet Marine Transportation, Inc., Mount Pleasant, SC. More information available from US FCC via Universal Licensing System and Coast Guard Vessel Documentation Center.

Last reported at 2017-Nov-16 21:00 UTC. Time now 2017-Nov-19 19:47 UTC.
Position N 29°48' W 093°21'.

Length 45 m; draft 1.5 m.

Type: Passenger vessel. MMSI: 367366390.

Date/timePositionNaut miles runAvg speedWind from/ knotsBaromVisibWave heightAir tempDewpointWater temp
2017-Nov-16 21:00N 29°48' W 093°21'19 3.6
2017-Nov-16 15:33N 29°38' W 093°02'0 0.1
2017-Nov-16 15:29N 29°38' W 093°02'0 0.0
2017-Nov-16 14:57N 29°38' W 093°02'18 5.0
2017-Nov-16 11:24N 29°45' W 093°21'4 8.7
2017-Nov-16 10:55N 29°49' W 093°20'0 0.0
2017-Nov-16 09:58N 29°49' W 093°20'0 0.0
2017-Nov-16 09:22N 29°49' W 093°20'0 0.0
2017-Nov-16 08:57N 29°49' W 093°20'0 0.0
2017-Nov-16 08:20N 29°49' W 093°20'0 0.3
2017-Nov-16 07:58N 29°49' W 093°20'0 0.0
2017-Nov-16 07:30N 29°49' W 093°20'0 0.0
2017-Nov-16 06:58N 29°49' W 093°20'3 6.0
2017-Nov-16 06:30N 29°47' W 093°21'1012.3
2017-Nov-16 05:39N 29°39' W 093°12'315.9
2017-Nov-16 05:29N 29°39' W 093°09'14 1.8
2017-Nov-15 21:55N 29°48' W 093°21'2 0.1
2017-Nov-15 08:20N 29°49' W 093°20'2 0.6
2017-Nov-15 05:44N 29°48' W 093°20'  
2017-Nov-10 07:51N 29°48' W 093°21'  
2017-Nov-08 02:15N 29°48' W 093°21'0 0.0
2017-Nov-08 01:56N 29°48' W 093°21'0 0.0
2017-Nov-08 01:30N 29°48' W 093°21'0 0.0
2017-Nov-08 01:00N 29°48' W 093°21'0 0.0
2017-Nov-08 00:31N 29°48' W 093°21'1 0.1
2017-Nov-07 13:53N 29°48' W 093°20'  
Track history (hours):
 
Tides and Currents Weather Stations Pressure Air Temp Water Temp Dewpoint Dewpoint Depression Visibility Wind Speed Wind Dir Waves Ship Positions

MiSS Linda Lee

Owner: Starfleet Marine Transportation, Inc., Mount Pleasant, SC. More information available from US FCC via Universal Licensing System and Coast Guard Vessel Documentation Center.

Last reported at 2017-Nov-16 21:00 UTC. Time now 2017-Nov-19 19:47 UTC.
Position N 29°48' W 093°21'.

Length 45 m; draft 1.5 m.

Type: Passenger vessel. MMSI: 367366390.

Date/timePositionNaut miles runAvg speedWind from/ knotsBaromVisibWave heightAir tempDewpointWater temp
2017-Nov-16 21:00N 29°48' W 093°21'19 3.6
2017-Nov-16 15:33N 29°38' W 093°02'0 0.1
2017-Nov-16 15:29N 29°38' W 093°02'0 0.0
2017-Nov-16 14:57N 29°38' W 093°02'18 5.0
2017-Nov-16 11:24N 29°45' W 093°21'4 8.7
2017-Nov-16 10:55N 29°49' W 093°20'0 0.0
2017-Nov-16 09:58N 29°49' W 093°20'0 0.0
2017-Nov-16 09:22N 29°49' W 093°20'0 0.0
2017-Nov-16 08:57N 29°49' W 093°20'0 0.0
2017-Nov-16 08:20N 29°49' W 093°20'0 0.3
2017-Nov-16 07:58N 29°49' W 093°20'0 0.0
2017-Nov-16 07:30N 29°49' W 093°20'0 0.0
2017-Nov-16 06:58N 29°49' W 093°20'3 6.0
2017-Nov-16 06:30N 29°47' W 093°21'1012.3
2017-Nov-16 05:39N 29°39' W 093°12'315.9
2017-Nov-16 05:29N 29°39' W 093°09'14 1.8
2017-Nov-15 21:55N 29°48' W 093°21'2 0.1
2017-Nov-15 08:20N 29°49' W 093°20'2 0.6
2017-Nov-15 05:44N 29°48' W 093°20'  
2017-Nov-10 07:51N 29°48' W 093°21'  
2017-Nov-08 02:15N 29°48' W 093°21'0 0.0
2017-Nov-08 01:56N 29°48' W 093°21'0 0.0
2017-Nov-08 01:30N 29°48' W 093°21'0 0.0
2017-Nov-08 01:00N 29°48' W 093°21'0 0.0
2017-Nov-08 00:31N 29°48' W 093°21'1 0.1
2017-Nov-07 13:53N 29°48' W 093°20'  

Dump ship's entire track history